Terminal Aerodrome Forecast
Issued by NWS Huntsville, AL

Home | Current Version | Previous Version | Text Only | Print | Product List | Glossary On
Versions: 1 2 3 4 5 6 7 8 9 10 11 12
000
FTUS44 KHUN 212328
TAFMSL
TAF
KMSL 212328Z 2200/2224 VRB03KT P6SM SKC
     FM221600 22006KT P6SM BKN050 PROB30 2218/2224 -TSRA BKN040CB=

USA.gov is the U.S. government's official web portal to all federal, state and local government web resources and services.